sensor_id;sensor_type;location;lat;lon;timestamp;P1;durP1;ratioP1;P2;durP2;ratioP2
13834;SDS011;6988;52.614;13.500;2023-06-19T00:00:43;11.67;;;10.60;;
13834;SDS011;6988;52.614;13.500;2023-06-19T00:05:35;12.10;;;10.80;;
13834;SDS011;6988;52.614;13.500;2023-06-19T00:10:26;12.93;;;10.90;;
13834;SDS011;6988;52.614;13.500;2023-06-19T00:15:18;11.53;;;10.43;;
13834;SDS011;6988;52.614;13.500;2023-06-19T00:20:12;13.27;;;11.93;;
13834;SDS011;6988;52.614;13.500;2023-06-19T00:25:04;13.30;;;11.43;;
13834;SDS011;6988;52.614;13.500;2023-06-19T00:29:57;12.93;;;11.70;;
13834;SDS011;6988;52.614;13.500;2023-06-19T00:34:52;11.50;;;10.50;;
13834;SDS011;6988;52.614;13.500;2023-06-19T00:39:45;11.63;;;10.43;;
13834;SDS011;6988;52.614;13.500;2023-06-19T00:44:37;11.87;;;10.77;;
13834;SDS011;6988;52.614;13.500;2023-06-19T00:49:29;12.03;;;10.50;;
13834;SDS011;6988;52.614;13.500;2023-06-19T00:54:23;13.13;;;11.77;;
13834;SDS011;6988;52.614;13.500;2023-06-19T00:59:17;13.33;;;11.77;;
13834;SDS011;6988;52.614;13.500;2023-06-19T01:04:11;12.80;;;11.50;;
13834;SDS011;6988;52.614;13.500;2023-06-19T01:09:04;14.53;;;12.30;;
13834;SDS011;6988;52.614;13.500;2023-06-19T01:14:03;14.13;;;12.30;;
13834;SDS011;6988;52.614;13.500;2023-06-19T01:19:05;13.20;;;12.00;;
13834;SDS011;6988;52.614;13.500;2023-06-19T01:24:08;14.53;;;13.03;;
13834;SDS011;6988;52.614;13.500;2023-06-19T01:29:00;13.77;;;12.43;;
13834;SDS011;6988;52.614;13.500;2023-06-19T01:33:52;13.77;;;12.43;;
13834;SDS011;6988;52.614;13.500;2023-06-19T01:38:46;13.87;;;12.40;;
13834;SDS011;6988;52.614;13.500;2023-06-19T01:43:41;14.47;;;12.87;;
13834;SDS011;6988;52.614;13.500;2023-06-19T01:48:35;14.60;;;12.80;;
13834;SDS011;6988;52.614;13.500;2023-06-19T01:53:30;14.90;;;13.50;;
13834;SDS011;6988;52.614;13.500;2023-06-19T01:58:22;16.07;;;13.63;;
13834;SDS011;6988;52.614;13.500;2023-06-19T02:03:16;14.83;;;13.27;;
13834;SDS011;6988;52.614;13.500;2023-06-19T02:08:11;15.07;;;13.60;;
13834;SDS011;6988;52.614;13.500;2023-06-19T02:13:03;16.27;;;14.67;;
13834;SDS011;6988;52.614;13.500;2023-06-19T02:17:55;15.60;;;14.00;;
13834;SDS011;6988;52.614;13.500;2023-06-19T02:22:50;14.90;;;13.37;;
13834;SDS011;6988;52.614;13.500;2023-06-19T02:27:42;14.80;;;13.27;;
13834;SDS011;6988;52.614;13.500;2023-06-19T02:32:34;16.97;;;13.60;;
13834;SDS011;6988;52.614;13.500;2023-06-19T02:37:26;15.27;;;13.67;;
13834;SDS011;6988;52.614;13.500;2023-06-19T02:42:21;15.80;;;14.13;;
13834;SDS011;6988;52.614;13.500;2023-06-19T02:47:13;18.10;;;15.03;;
13834;SDS011;6988;52.614;13.500;2023-06-19T02:52:05;16.20;;;14.50;;
13834;SDS011;6988;52.614;13.500;2023-06-19T02:56:59;16.00;;;14.57;;
13834;SDS011;6988;52.614;13.500;2023-06-19T03:01:52;17.77;;;15.73;;
13834;SDS011;6988;52.614;13.500;2023-06-19T03:06:44;16.93;;;15.33;;
13834;SDS011;6988;52.614;13.500;2023-06-19T03:11:36;18.27;;;15.83;;
13834;SDS011;6988;52.614;13.500;2023-06-19T03:16:28;19.53;;;16.90;;
13834;SDS011;6988;52.614;13.500;2023-06-19T03:21:21;18.70;;;16.33;;
13834;SDS011;6988;52.614;13.500;2023-06-19T03:26:15;25.17;;;16.30;;
13834;SDS011;6988;52.614;13.500;2023-06-19T03:31:07;22.20;;;15.87;;
13834;SDS011;6988;52.614;13.500;2023-06-19T03:36:00;19.97;;;17.53;;
13834;SDS011;6988;52.614;13.500;2023-06-19T03:41:08;21.03;;;17.60;;
13834;SDS011;6988;52.614;13.500;2023-06-19T03:46:00;19.67;;;16.70;;
13834;SDS011;6988;52.614;13.500;2023-06-19T03:50:52;19.33;;;17.20;;
13834;SDS011;6988;52.614;13.500;2023-06-19T03:55:47;20.27;;;17.70;;
13834;SDS011;6988;52.614;13.500;2023-06-19T04:00:40;19.57;;;17.53;;
13834;SDS011;6988;52.614;13.500;2023-06-19T04:05:32;19.67;;;17.80;;
13834;SDS011;6988;52.614;13.500;2023-06-19T04:10:24;19.67;;;17.63;;
13834;SDS011;6988;52.614;13.500;2023-06-19T04:15:18;18.63;;;16.87;;
13834;SDS011;6988;52.614;13.500;2023-06-19T04:20:12;19.77;;;17.80;;
13834;SDS011;6988;52.614;13.500;2023-06-19T04:25:05;20.60;;;18.70;;
13834;SDS011;6988;52.614;13.500;2023-06-19T04:29:58;18.53;;;16.70;;
13834;SDS011;6988;52.614;13.500;2023-06-19T04:34:49;17.87;;;16.20;;
13834;SDS011;6988;52.614;13.500;2023-06-19T04:39:45;19.67;;;17.67;;
13834;SDS011;6988;52.614;13.500;2023-06-19T04:44:37;20.50;;;17.03;;
13834;SDS011;6988;52.614;13.500;2023-06-19T04:49:30;20.57;;;18.67;;
13834;SDS011;6988;52.614;13.500;2023-06-19T04:54:22;18.00;;;16.27;;
13834;SDS011;6988;52.614;13.500;2023-06-19T04:59:15;18.40;;;16.70;;
13834;SDS011;6988;52.614;13.500;2023-06-19T05:04:08;19.87;;;17.90;;
13834;SDS011;6988;52.614;13.500;2023-06-19T05:09:01;19.53;;;17.73;;
13834;SDS011;6988;52.614;13.500;2023-06-19T05:13:53;19.27;;;17.10;;
13834;SDS011;6988;52.614;13.500;2023-06-19T05:18:46;18.63;;;16.93;;
13834;SDS011;6988;52.614;13.500;2023-06-19T05:23:39;17.27;;;15.67;;
13834;SDS011;6988;52.614;13.500;2023-06-19T05:28:31;17.33;;;15.63;;
13834;SDS011;6988;52.614;13.500;2023-06-19T05:33:23;16.97;;;15.37;;
13834;SDS011;6988;52.614;13.500;2023-06-19T05:38:16;17.67;;;15.97;;
13834;SDS011;6988;52.614;13.500;2023-06-19T05:43:08;18.50;;;16.70;;
13834;SDS011;6988;52.614;13.500;2023-06-19T05:48:00;18.23;;;16.23;;
13834;SDS011;6988;52.614;13.500;2023-06-19T05:52:52;18.97;;;17.10;;
13834;SDS011;6988;52.614;13.500;2023-06-19T05:57:45;18.83;;;17.03;;
13834;SDS011;6988;52.614;13.500;2023-06-19T06:02:37;19.27;;;17.37;;
13834;SDS011;6988;52.614;13.500;2023-06-19T06:07:29;16.90;;;15.37;;
13834;SDS011;6988;52.614;13.500;2023-06-19T06:12:21;17.20;;;15.47;;
13834;SDS011;6988;52.614;13.500;2023-06-19T06:17:14;18.40;;;16.60;;
13834;SDS011;6988;52.614;13.500;2023-06-19T06:22:06;19.10;;;17.40;;
13834;SDS011;6988;52.614;13.500;2023-06-19T06:26:58;19.83;;;17.83;;
13834;SDS011;6988;52.614;13.500;2023-06-19T06:31:49;17.67;;;15.97;;
13834;SDS011;6988;52.614;13.500;2023-06-19T06:36:44;18.97;;;16.57;;
13834;SDS011;6988;52.614;13.500;2023-06-19T06:41:36;17.43;;;15.67;;
13834;SDS011;6988;52.614;13.500;2023-06-19T06:46:29;17.40;;;15.70;;
13834;SDS011;6988;52.614;13.500;2023-06-19T06:51:21;17.77;;;16.17;;
13834;SDS011;6988;52.614;13.500;2023-06-19T06:56:15;17.17;;;15.53;;
13834;SDS011;6988;52.614;13.500;2023-06-19T07:01:06;17.43;;;15.70;;
13834;SDS011;6988;52.614;13.500;2023-06-19T07:05:58;17.07;;;15.47;;
13834;SDS011;6988;52.614;13.500;2023-06-19T07:10:51;17.93;;;16.13;;
13834;SDS011;6988;52.614;13.500;2023-06-19T07:15:44;16.70;;;15.03;;
13834;SDS011;6988;52.614;13.500;2023-06-19T07:20:36;16.60;;;15.00;;
13834;SDS011;6988;52.614;13.500;2023-06-19T07:25:28;17.00;;;15.37;;
13834;SDS011;6988;52.614;13.500;2023-06-19T07:30:20;17.23;;;15.63;;
13834;SDS011;6988;52.614;13.500;2023-06-19T07:35:13;16.63;;;15.13;;
13834;SDS011;6988;52.614;13.500;2023-06-19T07:40:05;15.13;;;13.83;;
13834;SDS011;6988;52.614;13.500;2023-06-19T07:44:58;15.37;;;13.77;;
13834;SDS011;6988;52.614;13.500;2023-06-19T07:49:50;16.57;;;14.67;;
13834;SDS011;6988;52.614;13.500;2023-06-19T07:54:51;14.80;;;13.37;;
13834;SDS011;6988;52.614;13.500;2023-06-19T07:59:48;14.67;;;13.27;;
13834;SDS011;6988;52.614;13.500;2023-06-19T08:04:41;16.33;;;13.40;;
13834;SDS011;6988;52.614;13.500;2023-06-19T08:09:32;14.17;;;12.70;;
13834;SDS011;6988;52.614;13.500;2023-06-19T08:14:26;14.67;;;13.17;;
13834;SDS011;6988;52.614;13.500;2023-06-19T08:19:18;13.35;;;12.15;;
13834;SDS011;6988;52.614;13.500;2023-06-19T08:24:10;13.65;;;12.32;;
13834;SDS011;6988;52.614;13.500;2023-06-19T08:29:02;13.67;;;12.47;;
13834;SDS011;6988;52.614;13.500;2023-06-19T08:33:55;14.05;;;12.65;;
13834;SDS011;6988;52.614;13.500;2023-06-19T08:38:48;14.70;;;13.25;;
13834;SDS011;6988;52.614;13.500;2023-06-19T08:43:42;15.03;;;13.63;;
13834;SDS011;6988;52.614;13.500;2023-06-19T08:48:35;13.80;;;12.50;;
13834;SDS011;6988;52.614;13.500;2023-06-19T08:53:29;13.85;;;12.55;;
13834;SDS011;6988;52.614;13.500;2023-06-19T08:58:22;13.95;;;12.48;;
13834;SDS011;6988;52.614;13.500;2023-06-19T09:03:19;12.70;;;11.50;;
13834;SDS011;6988;52.614;13.500;2023-06-19T09:08:12;12.15;;;11.05;;
13834;SDS011;6988;52.614;13.500;2023-06-19T09:13:07;13.05;;;11.75;;
13834;SDS011;6988;52.614;13.500;2023-06-19T09:18:03;13.32;;;12.07;;
13834;SDS011;6988;52.614;13.500;2023-06-19T09:22:57;16.67;;;12.38;;
13834;SDS011;6988;52.614;13.500;2023-06-19T09:27:50;13.10;;;11.90;;
13834;SDS011;6988;52.614;13.500;2023-06-19T09:32:44;14.15;;;12.75;;
13834;SDS011;6988;52.614;13.500;2023-06-19T09:37:36;14.38;;;13.07;;
13834;SDS011;6988;52.614;13.500;2023-06-19T09:42:32;18.10;;;12.90;;
13834;SDS011;6988;52.614;13.500;2023-06-19T09:47:25;16.33;;;14.43;;
13834;SDS011;6988;52.614;13.500;2023-06-19T09:52:24;15.65;;;14.07;;
13834;SDS011;6988;52.614;13.500;2023-06-19T09:57:25;15.23;;;13.73;;
13834;SDS011;6988;52.614;13.500;2023-06-19T10:02:18;16.65;;;14.18;;
13834;SDS011;6988;52.614;13.500;2023-06-19T10:07:16;15.13;;;13.63;;
13834;SDS011;6988;52.614;13.500;2023-06-19T10:12:14;14.63;;;13.35;;
13834;SDS011;6988;52.614;13.500;2023-06-19T10:17:07;15.38;;;13.77;;
13834;SDS011;6988;52.614;13.500;2023-06-19T10:22:00;14.95;;;13.50;;
13834;SDS011;6988;52.614;13.500;2023-06-19T10:26:55;15.75;;;14.25;;
13834;SDS011;6988;52.614;13.500;2023-06-19T10:31:50;15.63;;;14.13;;
13834;SDS011;6988;52.614;13.500;2023-06-19T10:36:42;16.38;;;14.38;;
13834;SDS011;6988;52.614;13.500;2023-06-19T10:41:34;16.23;;;13.18;;
13834;SDS011;6988;52.614;13.500;2023-06-19T10:46:28;15.93;;;14.23;;
13834;SDS011;6988;52.614;13.500;2023-06-19T10:51:23;15.90;;;14.35;;
13834;SDS011;6988;52.614;13.500;2023-06-19T10:56:15;16.10;;;14.60;;
13834;SDS011;6988;52.614;13.500;2023-06-19T11:01:12;15.23;;;13.73;;
13834;SDS011;6988;52.614;13.500;2023-06-19T11:06:05;14.93;;;13.43;;
13834;SDS011;6988;52.614;13.500;2023-06-19T11:10:58;15.45;;;14.00;;
13834;SDS011;6988;52.614;13.500;2023-06-19T11:15:50;13.40;;;12.20;;
13834;SDS011;6988;52.614;13.500;2023-06-19T11:20:45;13.50;;;12.40;;
13834;SDS011;6988;52.614;13.500;2023-06-19T11:25:40;15.25;;;13.65;;
13834;SDS011;6988;52.614;13.500;2023-06-19T11:30:34;13.73;;;12.43;;
13834;SDS011;6988;52.614;13.500;2023-06-19T11:35:32;13.77;;;12.38;;
13834;SDS011;6988;52.614;13.500;2023-06-19T11:40:38;14.30;;;12.50;;
13834;SDS011;6988;52.614;13.500;2023-06-19T11:45:31;13.35;;;12.15;;
13834;SDS011;6988;52.614;13.500;2023-06-19T11:50:27;13.45;;;12.25;;
13834;SDS011;6988;52.614;13.500;2023-06-19T11:55:19;13.95;;;11.57;;
13834;SDS011;6988;52.614;13.500;2023-06-19T12:00:13;11.85;;;10.63;;
13834;SDS011;6988;52.614;13.500;2023-06-19T12:05:07;11.55;;;10.65;;
13834;SDS011;6988;52.614;13.500;2023-06-19T12:10:02;10.38;;;9.48;;
13834;SDS011;6988;52.614;13.500;2023-06-19T12:14:59;10.65;;;9.75;;
13834;SDS011;6988;52.614;13.500;2023-06-19T12:19:52;10.88;;;9.88;;
13834;SDS011;6988;52.614;13.500;2023-06-19T12:24:44;10.88;;;9.88;;
13834;SDS011;6988;52.614;13.500;2023-06-19T12:29:38;10.85;;;9.75;;
13834;SDS011;6988;52.614;13.500;2023-06-19T12:34:29;10.77;;;9.77;;
13834;SDS011;6988;52.614;13.500;2023-06-19T12:39:21;10.90;;;9.80;;
13834;SDS011;6988;52.614;13.500;2023-06-19T12:44:14;11.27;;;10.27;;
13834;SDS011;6988;52.614;13.500;2023-06-19T12:49:08;11.50;;;10.50;;
13834;SDS011;6988;52.614;13.500;2023-06-19T12:54:00;10.20;;;9.30;;
13834;SDS011;6988;52.614;13.500;2023-06-19T12:58:51;9.10;;;8.27;;
13834;SDS011;6988;52.614;13.500;2023-06-19T13:03:43;9.30;;;8.48;;
13834;SDS011;6988;52.614;13.500;2023-06-19T13:08:37;9.48;;;8.68;;
13834;SDS011;6988;52.614;13.500;2023-06-19T13:13:28;10.75;;;8.13;;
13834;SDS011;6988;52.614;13.500;2023-06-19T13:18:21;10.00;;;8.65;;
13834;SDS011;6988;52.614;13.500;2023-06-19T13:23:12;10.00;;;9.10;;
13834;SDS011;6988;52.614;13.500;2023-06-19T13:28:06;10.00;;;9.10;;
13834;SDS011;6988;52.614;13.500;2023-06-19T13:32:58;8.73;;;8.02;;
13834;SDS011;6988;52.614;13.500;2023-06-19T13:37:50;9.05;;;8.23;;
13834;SDS011;6988;52.614;13.500;2023-06-19T13:42:42;9.05;;;8.25;;
13834;SDS011;6988;52.614;13.500;2023-06-19T13:47:36;8.88;;;8.07;;
13834;SDS011;6988;52.614;13.500;2023-06-19T13:52:28;9.02;;;8.30;;
13834;SDS011;6988;52.614;13.500;2023-06-19T13:57:20;9.13;;;8.32;;
13834;SDS011;6988;52.614;13.500;2023-06-19T14:02:12;14.10;;;9.32;;
13834;SDS011;6988;52.614;13.500;2023-06-19T14:07:06;9.00;;;8.10;;
13834;SDS011;6988;52.614;13.500;2023-06-19T14:11:58;9.40;;;8.52;;
13834;SDS011;6988;52.614;13.500;2023-06-19T14:16:50;9.40;;;8.50;;
13834;SDS011;6988;52.614;13.500;2023-06-19T14:21:42;10.05;;;8.32;;
13834;SDS011;6988;52.614;13.500;2023-06-19T14:26:35;9.02;;;8.13;;
13834;SDS011;6988;52.614;13.500;2023-06-19T14:31:27;9.20;;;8.30;;
13834;SDS011;6988;52.614;13.500;2023-06-19T14:36:19;10.63;;;8.57;;
13834;SDS011;6988;52.614;13.500;2023-06-19T14:41:11;9.95;;;8.77;;
13834;SDS011;6988;52.614;13.500;2023-06-19T14:46:04;9.63;;;8.73;;
13834;SDS011;6988;52.614;13.500;2023-06-19T14:50:56;9.48;;;8.50;;
13834;SDS011;6988;52.614;13.500;2023-06-19T14:55:48;10.23;;;9.15;;
13834;SDS011;6988;52.614;13.500;2023-06-19T15:00:40;9.73;;;8.88;;
13834;SDS011;6988;52.614;13.500;2023-06-19T15:05:34;10.40;;;9.40;;
13834;SDS011;6988;52.614;13.500;2023-06-19T15:10:26;10.48;;;9.48;;
13834;SDS011;6988;52.614;13.500;2023-06-19T15:15:18;10.20;;;9.30;;
13834;SDS011;6988;52.614;13.500;2023-06-19T15:20:10;11.15;;;9.55;;
13834;SDS011;6988;52.614;13.500;2023-06-19T15:25:04;10.23;;;9.23;;
13834;SDS011;6988;52.614;13.500;2023-06-19T15:29:57;9.82;;;8.98;;
13834;SDS011;6988;52.614;13.500;2023-06-19T15:34:49;10.73;;;9.73;;
13834;SDS011;6988;52.614;13.500;2023-06-19T15:39:41;10.77;;;9.77;;
13834;SDS011;6988;52.614;13.500;2023-06-19T15:44:35;11.25;;;10.20;;
13834;SDS011;6988;52.614;13.500;2023-06-19T15:49:27;11.10;;;10.05;;
13834;SDS011;6988;52.614;13.500;2023-06-19T15:54:19;10.20;;;9.20;;
13834;SDS011;6988;52.614;13.500;2023-06-19T15:59:11;10.88;;;9.88;;
13834;SDS011;6988;52.614;13.500;2023-06-19T16:04:05;11.80;;;10.70;;
13834;SDS011;6988;52.614;13.500;2023-06-19T16:08:56;11.55;;;10.45;;
13834;SDS011;6988;52.614;13.500;2023-06-19T16:13:48;12.38;;;11.18;;
13834;SDS011;6988;52.614;13.500;2023-06-19T16:18:40;11.80;;;10.65;;
13834;SDS011;6988;52.614;13.500;2023-06-19T16:23:34;11.80;;;10.80;;
13834;SDS011;6988;52.614;13.500;2023-06-19T16:28:26;12.73;;;11.48;;
13834;SDS011;6988;52.614;13.500;2023-06-19T16:33:19;11.65;;;10.55;;
13834;SDS011;6988;52.614;13.500;2023-06-19T16:38:11;12.93;;;11.63;;
13834;SDS011;6988;52.614;13.500;2023-06-19T16:43:04;12.00;;;10.95;;
13834;SDS011;6988;52.614;13.500;2023-06-19T16:47:57;11.45;;;10.55;;
13834;SDS011;6988;52.614;13.500;2023-06-19T16:52:49;12.00;;;10.85;;
13834;SDS011;6988;52.614;13.500;2023-06-19T16:57:41;12.35;;;11.15;;
13834;SDS011;6988;52.614;13.500;2023-06-19T17:02:34;11.90;;;10.70;;
13834;SDS011;6988;52.614;13.500;2023-06-19T17:07:26;12.30;;;11.10;;
13834;SDS011;6988;52.614;13.500;2023-06-19T17:12:18;12.27;;;11.07;;
13834;SDS011;6988;52.614;13.500;2023-06-19T17:17:10;12.65;;;11.45;;
13834;SDS011;6988;52.614;13.500;2023-06-19T17:22:03;11.50;;;10.50;;
13834;SDS011;6988;52.614;13.500;2023-06-19T17:26:55;12.45;;;11.30;;
13834;SDS011;6988;52.614;13.500;2023-06-19T17:31:47;12.10;;;10.80;;
13834;SDS011;6988;52.614;13.500;2023-06-19T17:36:39;12.15;;;11.10;;
13834;SDS011;6988;52.614;13.500;2023-06-19T22:04:50;16.00;;;14.50;;
13834;SDS011;6988;52.614;13.500;2023-06-19T22:14:42;17.70;;;15.90;;
13834;SDS011;6988;52.614;13.500;2023-06-19T22:19:35;16.80;;;15.20;;
13834;SDS011;6988;52.614;13.500;2023-06-19T22:24:29;17.17;;;15.57;;
13834;SDS011;6988;52.614;13.500;2023-06-19T22:29:24;18.13;;;16.43;;
13834;SDS011;6988;52.614;13.500;2023-06-19T22:34:16;17.17;;;15.57;;
13834;SDS011;6988;52.614;13.500;2023-06-19T22:39:07;16.83;;;15.13;;
13834;SDS011;6988;52.614;13.500;2023-06-19T22:44:01;16.37;;;14.87;;
13834;SDS011;6988;52.614;13.500;2023-06-19T22:48:53;17.37;;;15.47;;
13834;SDS011;6988;52.614;13.500;2023-06-19T22:53:45;16.80;;;15.10;;
13834;SDS011;6988;52.614;13.500;2023-06-19T22:58:37;16.73;;;15.13;;
13834;SDS011;6988;52.614;13.500;2023-06-19T23:03:31;17.07;;;15.37;;
13834;SDS011;6988;52.614;13.500;2023-06-19T23:08:23;17.43;;;15.73;;
13834;SDS011;6988;52.614;13.500;2023-06-19T23:13:15;17.63;;;15.93;;
13834;SDS011;6988;52.614;13.500;2023-06-19T23:18:07;17.07;;;15.40;;
13834;SDS011;6988;52.614;13.500;2023-06-19T23:23:00;16.73;;;15.13;;
13834;SDS011;6988;52.614;13.500;2023-06-19T23:27:55;18.30;;;16.40;;
13834;SDS011;6988;52.614;13.500;2023-06-19T23:32:47;18.60;;;16.90;;
13834;SDS011;6988;52.614;13.500;2023-06-19T23:37:38;17.90;;;16.10;;
13834;SDS011;6988;52.614;13.500;2023-06-19T23:42:32;17.97;;;16.17;;
13834;SDS011;6988;52.614;13.500;2023-06-19T23:47:23;17.83;;;16.03;;
13834;SDS011;6988;52.614;13.500;2023-06-19T23:52:16;17.70;;;16.00;;
13834;SDS011;6988;52.614;13.500;2023-06-19T23:57:07;18.07;;;16.27;;
